createdAt,value
2024-04-23T01:31:33.019Z,92.75
2024-04-23T01:32:39.324Z,92.70
2024-04-23T01:33:45.021Z,92.75
2024-04-23T01:34:49.013Z,92.82
2024-04-23T01:35:52.224Z,92.74
2024-04-23T01:36:54.945Z,92.74
2024-04-23T01:37:58.554Z,92.87
2024-04-23T01:39:02.378Z,92.61
2024-04-23T01:40:07.058Z,92.98
2024-04-23T01:41:09.801Z,92.94
2024-04-23T01:42:13.551Z,92.82
2024-04-23T01:43:17.640Z,92.94
2024-04-23T01:44:20.719Z,92.80
2024-04-23T01:45:24.644Z,92.66
2024-04-23T01:46:28.119Z,92.72
2024-04-23T01:47:31.261Z,92.41
2024-04-23T01:48:34.638Z,92.64
2024-04-23T01:49:38.128Z,92.72
2024-04-23T01:50:41.075Z,92.43
2024-04-23T01:51:44.006Z,92.54
2024-04-23T01:52:46.877Z,92.44
2024-04-23T01:53:49.680Z,92.36
2024-04-23T01:54:52.656Z,92.37
2024-04-23T01:55:56.538Z,92.38
2024-04-23T01:57:03.921Z,92.35
2024-04-23T01:58:06.906Z,92.32
2024-04-23T01:59:09.600Z,92.19
2024-04-23T02:00:15.409Z,92.30
2024-04-23T02:01:22.178Z,92.26
2024-04-23T02:02:26.022Z,92.03
2024-04-23T02:03:31.152Z,92.16
2024-04-23T02:04:35.020Z,92.22
2024-04-23T02:05:39.441Z,92.13
2024-04-23T02:06:42.624Z,92.13
2024-04-23T02:07:46.739Z,92.35
2024-04-23T02:08:50.540Z,92.32
2024-04-23T02:09:54.091Z,92.14
2024-04-23T02:10:57.203Z,92.41
2024-04-23T02:12:04.739Z,92.26
2024-04-23T02:13:08.979Z,92.32
2024-04-23T02:14:11.606Z,92.52
2024-04-23T02:15:14.621Z,92.24
2024-04-23T02:16:18.034Z,92.39
2024-04-23T02:17:20.715Z,92.20
2024-04-23T02:18:23.733Z,92.12
2024-04-23T02:19:26.600Z,92.25
2024-04-23T02:20:29.324Z,91.93
2024-04-23T02:21:32.238Z,91.96
2024-04-23T02:22:35.275Z,92.14
2024-04-23T02:23:37.943Z,91.97
2024-04-23T02:24:40.884Z,91.99
2024-04-23T02:25:43.506Z,91.82
2024-04-23T02:26:46.225Z,91.78
2024-04-23T02:27:49.294Z,91.87
2024-04-23T02:28:52.028Z,91.92
2024-04-23T02:29:54.898Z,91.81
2024-04-23T02:30:57.584Z,91.81
2024-04-23T02:32:04.195Z,91.82
2024-04-23T02:33:11.588Z,91.67
2024-04-23T02:34:14.536Z,91.60
2024-04-23T02:35:17.632Z,91.78
2024-04-23T02:36:20.223Z,91.74
2024-04-23T02:37:23.078Z,91.63
2024-04-23T02:38:25.738Z,91.68
2024-04-23T02:39:28.423Z,91.60
2024-04-23T02:40:31.217Z,91.56
2024-04-23T02:41:37.721Z,91.57
2024-04-23T02:42:40.392Z,91.55
2024-04-23T02:43:43.264Z,91.45
2024-04-23T02:44:46.004Z,91.45
2024-04-23T02:45:48.887Z,91.53
2024-04-23T02:46:51.809Z,91.49
2024-04-23T02:47:54.624Z,91.66
2024-04-23T02:48:57.266Z,91.59
2024-04-23T02:49:59.931Z,91.40
2024-04-23T02:51:02.742Z,91.50
2024-04-23T02:52:05.482Z,91.46
2024-04-23T02:53:08.121Z,91.58
2024-04-23T02:54:10.802Z,91.59
2024-04-23T02:55:13.570Z,91.38
2024-04-23T02:56:16.426Z,91.33
2024-04-23T02:57:19.287Z,91.34
2024-04-23T02:58:21.902Z,91.28
2024-04-23T02:59:24.591Z,91.18
2024-04-23T03:00:27.369Z,91.22
2024-04-23T03:01:30.078Z,91.21
2024-04-23T03:02:32.773Z,91.21
2024-04-23T03:03:35.499Z,91.20
2024-04-23T03:04:38.392Z,91.22
2024-04-23T03:05:41.320Z,91.06
2024-04-23T03:06:44.009Z,91.22
2024-04-23T03:07:46.673Z,91.08
2024-04-23T03:08:50.701Z,91.14
2024-04-23T03:09:53.580Z,91.06
2024-04-23T03:10:56.314Z,91.06
2024-04-23T03:11:59.194Z,90.99
2024-04-23T03:13:02.251Z,90.85
2024-04-23T03:14:04.983Z,90.83
2024-04-23T03:15:08.033Z,90.97
2024-04-23T03:16:10.698Z,91.21
2024-04-23T03:17:13.317Z,91.08
2024-04-23T03:18:16.072Z,90.93
2024-04-23T03:19:18.983Z,91.17
2024-04-23T03:20:21.833Z,91.01
2024-04-23T03:21:24.681Z,90.95
2024-04-23T03:22:27.502Z,91.13
2024-04-23T03:23:30.298Z,91.12
2024-04-23T03:24:35.207Z,91.00
2024-04-23T03:25:40.159Z,90.98
2024-04-23T03:26:43.385Z,91.07
2024-04-23T03:27:46.061Z,90.94
2024-04-23T03:28:49.022Z,90.94
2024-04-23T03:29:51.878Z,90.92
2024-04-23T03:30:54.552Z,90.96
2024-04-23T03:32:02.834Z,90.99
2024-04-23T03:33:06.022Z,90.69
2024-04-23T03:34:08.815Z,90.48
2024-04-23T03:35:11.790Z,90.70
2024-04-23T03:36:17.637Z,90.21
2024-04-23T03:37:20.632Z,90.11
2024-04-23T03:38:23.260Z,90.54
2024-04-23T03:39:25.967Z,90.21
2024-04-23T03:40:28.809Z,90.06
2024-04-23T03:41:31.901Z,90.15
2024-04-23T03:42:34.838Z,90.12
2024-04-23T03:43:37.564Z,90.08
2024-04-23T03:44:41.567Z,90.00
2024-04-23T03:45:45.232Z,89.83
2024-04-23T03:46:47.967Z,89.93
2024-04-23T03:47:50.921Z,89.76
2024-04-23T03:48:53.567Z,89.69
2024-04-23T03:49:56.305Z,89.71
2024-04-23T03:50:59.132Z,89.78
2024-04-23T03:52:11.477Z,89.63
2024-04-23T03:53:14.090Z,89.83
2024-04-23T03:54:16.835Z,89.73
2024-04-23T03:55:19.921Z,89.69
2024-04-23T03:56:22.716Z,89.64
2024-04-23T03:57:25.375Z,89.79
2024-04-23T03:58:28.116Z,89.90
2024-04-23T03:59:30.795Z,89.79
2024-04-23T04:00:33.647Z,89.71
2024-04-23T04:01:36.342Z,89.71
2024-04-23T04:02:57.556Z,89.86
2024-04-23T04:04:18.946Z,89.81
2024-04-23T04:05:40.583Z,89.81
2024-04-23T04:06:43.650Z,89.96
2024-04-23T04:07:46.323Z,90.11
2024-04-23T04:08:49.174Z,89.87
2024-04-23T04:09:51.781Z,90.07
2024-04-23T04:10:54.628Z,90.00
2024-04-23T04:11:59.098Z,89.99
2024-04-23T04:13:12.975Z,90.09
2024-04-23T04:14:23.956Z,90.05
2024-04-23T04:15:26.616Z,90.17
2024-04-23T04:16:33.433Z,90.14
2024-04-23T04:17:38.293Z,89.94
2024-04-23T04:18:41.153Z,90.25
2024-04-23T04:19:46.457Z,90.25
2024-04-23T04:20:49.433Z,90.31
2024-04-23T04:21:52.309Z,90.40
2024-04-23T04:22:55.276Z,90.25
2024-04-23T04:23:57.991Z,90.32
2024-04-23T04:25:00.757Z,90.18
2024-04-23T04:26:04.017Z,90.17
2024-04-23T04:27:06.867Z,90.54
2024-04-23T04:28:09.679Z,90.54
2024-04-23T04:29:12.343Z,90.39
2024-04-23T04:30:15.116Z,90.60
2024-04-23T04:31:17.969Z,90.45
2024-04-23T04:32:20.682Z,90.53
2024-04-23T04:33:23.599Z,90.57
2024-04-23T04:34:26.318Z,90.46
2024-04-23T04:35:29.242Z,90.52
2024-04-23T04:36:32.007Z,90.74
2024-04-23T04:37:36.440Z,90.74
2024-04-23T04:38:39.289Z,90.71
2024-04-23T04:39:43.881Z,90.75
2024-04-23T04:40:46.741Z,90.71
2024-04-23T04:41:49.451Z,90.88
2024-04-23T04:42:52.463Z,90.71
2024-04-23T04:43:55.481Z,90.92
2024-04-23T04:44:58.116Z,90.73
2024-04-23T04:46:00.803Z,90.61
2024-04-23T04:47:05.018Z,90.66
2024-04-23T04:48:09.214Z,90.71
2024-04-23T04:49:12.410Z,90.52
2024-04-23T04:50:15.226Z,90.65
2024-04-23T04:51:20.169Z,90.65
2024-04-23T04:52:22.973Z,90.64
2024-04-23T04:53:25.577Z,90.62
2024-04-23T04:54:28.360Z,90.60
2024-04-23T04:55:32.056Z,90.53
2024-04-23T04:56:34.783Z,90.38
2024-04-23T04:57:37.564Z,90.40
2024-04-23T04:58:40.492Z,90.24
2024-04-23T04:59:43.282Z,90.21
2024-04-23T05:00:46.155Z,90.06
2024-04-23T05:01:49.644Z,90.06
2024-04-23T05:02:52.517Z,89.99
2024-04-23T05:03:58.293Z,89.81
2024-04-23T05:05:01.294Z,90.04
2024-04-23T05:06:04.019Z,90.04
2024-04-23T05:07:06.798Z,90.04
2024-04-23T05:08:09.671Z,89.94
2024-04-23T05:09:12.364Z,89.85
2024-04-23T05:10:15.976Z,89.89
2024-04-23T05:11:19.164Z,89.87
2024-04-23T05:12:21.969Z,89.84
2024-04-23T05:13:24.876Z,89.58
2024-04-23T05:14:27.801Z,89.52
2024-04-23T05:15:30.409Z,89.71
2024-04-23T05:16:33.195Z,89.73
2024-04-23T05:17:36.394Z,89.67
2024-04-23T05:18:39.646Z,89.46
2024-04-23T05:19:44.953Z,89.40
2024-04-23T05:20:47.674Z,89.13
2024-04-23T05:21:50.879Z,89.20
2024-04-23T05:22:53.557Z,88.97
2024-04-23T05:23:56.461Z,89.16
2024-04-23T05:24:59.284Z,89.14
2024-04-23T05:26:02.083Z,88.68
2024-04-23T05:27:05.077Z,88.80
2024-04-23T05:28:07.809Z,88.51
2024-04-23T05:29:10.650Z,88.56
2024-04-23T05:30:36.138Z,88.24
2024-04-23T05:31:58.218Z,88.32
2024-04-23T05:33:01.024Z,88.14
2024-04-23T05:34:03.755Z,87.98
2024-04-23T05:35:07.703Z,87.94
2024-04-23T05:36:10.738Z,88.10
2024-04-23T05:37:13.666Z,88.13
2024-04-23T05:38:17.686Z,87.54
2024-04-23T05:39:20.792Z,87.33
2024-04-23T05:40:24.030Z,87.57
2024-04-23T05:41:26.978Z,87.66
2024-04-23T05:42:29.777Z,87.70
2024-04-23T05:43:32.593Z,87.23
2024-04-23T05:44:35.254Z,87.00
2024-04-23T05:45:38.035Z,86.46
2024-04-23T05:46:40.945Z,86.58
2024-04-23T05:48:21.627Z,86.80
2024-04-23T05:50:26.019Z,86.05
2024-04-23T05:52:30.429Z,86.27
2024-04-23T05:54:30.501Z,85.99
2024-04-23T05:55:51.836Z,85.93
2024-04-23T05:56:54.612Z,85.84
2024-04-23T05:57:57.571Z,85.44
2024-04-23T05:59:00.356Z,85.16
2024-04-23T06:00:03.360Z,85.05
2024-04-23T06:01:10.739Z,85.32
2024-04-23T06:02:13.602Z,84.85
2024-04-23T06:03:16.258Z,84.96
2024-04-23T06:04:20.862Z,84.56
2024-04-23T06:05:24.688Z,84.89
2024-04-23T06:06:27.617Z,84.84
2024-04-23T06:07:30.395Z,84.35
2024-04-23T06:08:33.505Z,83.64
2024-04-23T06:09:36.218Z,82.98
2024-04-23T06:10:39.225Z,83.48
2024-04-23T06:11:42.033Z,83.11
2024-04-23T06:12:48.100Z,82.92
2024-04-23T06:14:06.710Z,83.33
2024-04-23T06:15:09.376Z,83.49
2024-04-23T06:16:12.400Z,82.56
2024-04-23T06:17:15.724Z,82.77
2024-04-23T06:18:23.930Z,82.98
2024-04-23T06:19:28.755Z,83.15
2024-04-23T06:20:31.689Z,83.08
2024-04-23T06:21:34.454Z,82.33
2024-04-23T06:22:39.931Z,82.49
2024-04-23T06:23:43.003Z,82.66
2024-04-23T06:24:50.564Z,82.34
2024-04-23T06:25:53.184Z,81.66
2024-04-23T06:26:55.887Z,82.45
2024-04-23T06:27:58.924Z,81.93
2024-04-23T06:29:02.482Z,81.84
2024-04-23T06:30:07.639Z,81.89
2024-04-23T06:31:13.827Z,81.68
2024-04-23T06:32:18.344Z,81.26
2024-04-23T06:33:21.210Z,79.72
2024-04-23T06:34:24.005Z,79.15
2024-04-23T06:35:26.749Z,79.37
2024-04-23T06:36:29.417Z,79.30
2024-04-23T06:37:33.854Z,77.61
2024-04-23T06:38:36.813Z,78.30
2024-04-23T06:39:40.650Z,78.33
2024-04-23T06:40:43.684Z,78.50
2024-04-23T06:41:46.362Z,78.63
2024-04-23T06:42:49.524Z,77.79
2024-04-23T06:43:52.197Z,76.97
2024-04-23T06:44:56.144Z,76.94
2024-04-23T06:45:58.790Z,77.39
2024-04-23T06:47:01.696Z,76.76
2024-04-23T06:48:05.137Z,76.96
2024-04-23T06:49:08.026Z,76.24
2024-04-23T06:50:10.886Z,76.55
2024-04-23T06:51:13.890Z,76.60
2024-04-23T06:52:18.417Z,75.99
2024-04-23T06:53:21.109Z,76.06
2024-04-23T06:54:24.002Z,75.64
2024-04-23T06:55:26.787Z,74.53
2024-04-23T06:56:29.611Z,73.60
2024-04-23T06:57:32.308Z,73.62
2024-04-23T06:58:35.453Z,74.50
2024-04-23T06:59:38.146Z,73.87
2024-04-23T07:00:40.799Z,72.88
2024-04-23T07:01:44.104Z,71.62
2024-04-23T07:02:47.042Z,70.32
2024-04-23T07:03:50.087Z,69.84
2024-04-23T07:04:52.990Z,70.16
2024-04-23T07:05:55.632Z,70.47
2024-04-23T07:06:58.639Z,70.20
2024-04-23T07:08:01.719Z,71.38
2024-04-23T07:09:05.175Z,67.79
2024-04-23T07:10:08.796Z,69.48
2024-04-23T07:11:11.630Z,70.31
2024-04-23T07:12:14.287Z,70.07
2024-04-23T07:13:17.186Z,68.47
2024-04-23T07:14:20.197Z,67.04
2024-04-23T07:15:23.052Z,66.64
2024-04-23T07:16:26.259Z,67.80
2024-04-23T07:17:29.055Z,67.62
2024-04-23T07:18:31.945Z,67.88
2024-04-23T07:19:34.652Z,67.88
2024-04-23T07:20:38.338Z,69.03
2024-04-23T07:21:41.189Z,68.36
2024-04-23T07:22:43.963Z,64.82
2024-04-23T07:23:46.626Z,65.37
2024-04-23T07:24:49.759Z,65.56
2024-04-23T07:25:52.586Z,65.95
2024-04-23T07:26:55.456Z,64.97
2024-04-23T07:27:58.790Z,63.32
2024-04-23T07:29:01.831Z,64.28
2024-04-23T07:30:05.763Z,64.89
2024-04-23T07:31:08.399Z,65.40
2024-04-23T07:32:14.494Z,64.56
2024-04-23T07:33:19.087Z,65.17
2024-04-23T07:34:21.924Z,65.59
2024-04-23T07:35:26.192Z,65.32
2024-04-23T07:36:29.733Z,63.73
2024-04-23T07:37:32.783Z,63.61
2024-04-23T07:38:37.098Z,64.31
2024-04-23T07:39:39.875Z,65.22
2024-04-23T07:40:49.252Z,64.82
2024-04-23T07:41:52.058Z,64.98
2024-04-23T07:42:54.757Z,64.44
2024-04-23T07:43:57.641Z,63.61
2024-04-23T07:45:00.420Z,63.63
2024-04-23T07:46:03.143Z,63.61
2024-04-23T07:47:06.131Z,64.09
2024-04-23T07:48:09.369Z,64.32
2024-04-23T07:49:12.395Z,63.49
2024-04-23T07:50:15.167Z,64.12
2024-04-23T07:51:18.006Z,63.67
2024-04-23T07:52:20.876Z,63.89
2024-04-23T07:53:23.652Z,63.76
2024-04-23T07:54:26.537Z,63.25
2024-04-23T07:55:29.460Z,62.59
2024-04-23T07:56:32.200Z,63.23
2024-04-23T07:57:35.088Z,63.48
2024-04-23T07:58:38.916Z,62.38
2024-04-23T07:59:41.755Z,62.14
2024-04-23T08:00:44.605Z,61.81
2024-04-23T08:01:47.294Z,61.98
2024-04-23T08:02:55.205Z,63.16
2024-04-23T08:03:57.854Z,63.09
2024-04-23T08:05:00.801Z,62.96
2024-04-23T08:06:03.819Z,62.93
2024-04-23T08:07:06.642Z,62.92
2024-04-23T08:08:09.636Z,62.36
2024-04-23T08:09:12.333Z,62.99
2024-04-23T08:10:18.763Z,62.58
2024-04-23T08:11:22.023Z,62.37
2024-04-23T08:12:24.810Z,62.44
2024-04-23T08:13:28.652Z,62.75
2024-04-23T08:14:31.533Z,62.56
2024-04-23T08:15:34.294Z,61.89
2024-04-23T08:16:37.104Z,62.00
2024-04-23T08:17:40.102Z,62.32
2024-04-23T08:18:43.058Z,62.83
2024-04-23T08:19:45.917Z,63.03
2024-04-23T08:20:48.821Z,63.05
2024-04-23T08:21:52.012Z,62.73
2024-04-23T08:22:57.743Z,62.56
2024-04-23T08:24:00.374Z,62.32
2024-04-23T08:25:03.313Z,62.42
2024-04-23T08:26:16.304Z,62.72
2024-04-23T08:27:20.030Z,62.87
2024-04-23T08:28:22.683Z,63.24
2024-04-23T08:29:25.476Z,63.74
2024-04-23T08:30:28.185Z,63.90
2024-04-23T08:31:31.094Z,64.00
2024-04-23T08:32:33.952Z,63.85
2024-04-23T08:33:36.837Z,63.33
2024-04-23T08:34:39.823Z,63.55
2024-04-23T08:35:42.680Z,62.95
2024-04-23T08:36:45.579Z,62.59
2024-04-23T08:37:48.562Z,62.42
2024-04-23T08:38:51.587Z,62.87
2024-04-23T08:39:54.360Z,63.34
2024-04-23T08:40:57.431Z,63.76
2024-04-23T08:42:01.959Z,62.94
2024-04-23T08:43:16.423Z,63.24
2024-04-23T08:44:22.311Z,63.40
2024-04-23T08:45:30.261Z,63.77
2024-04-23T08:46:33.056Z,63.50
2024-04-23T08:47:37.989Z,63.61
2024-04-23T08:48:42.280Z,63.61
2024-04-23T08:49:48.576Z,63.31
2024-04-23T08:50:52.033Z,62.77
2024-04-23T08:51:56.780Z,62.96
2024-04-23T08:53:00.264Z,63.17
2024-04-23T08:54:05.781Z,63.21
2024-04-23T08:55:09.254Z,62.93
2024-04-23T08:56:17.223Z,62.47
2024-04-23T08:57:20.468Z,62.16
2024-04-23T08:58:23.717Z,62.45
2024-04-23T08:59:27.678Z,62.06
2024-04-23T09:00:38.092Z,62.43
2024-04-23T09:01:50.409Z,62.06
2024-04-23T09:02:53.891Z,61.70
2024-04-23T09:03:58.097Z,61.38
2024-04-23T09:05:03.611Z,61.87
2024-04-23T09:06:06.978Z,61.28
2024-04-23T09:07:17.641Z,61.05
2024-04-23T09:08:27.713Z,61.60
2024-04-23T09:09:31.609Z,61.66
2024-04-23T09:10:35.192Z,61.59
2024-04-23T09:11:38.023Z,61.40
2024-04-23T09:12:47.091Z,61.24
2024-04-23T09:13:50.375Z,59.81
2024-04-23T09:14:56.597Z,60.46
2024-04-23T09:15:59.396Z,60.31
2024-04-23T09:17:02.198Z,60.70
2024-04-23T09:18:05.449Z,60.71
2024-04-23T09:19:09.413Z,60.89
2024-04-23T09:20:15.212Z,60.03
2024-04-23T09:21:19.513Z,60.27
2024-04-23T09:22:22.351Z,59.78
2024-04-23T09:23:28.884Z,59.56
2024-04-23T09:24:32.329Z,59.36
2024-04-23T09:25:36.266Z,59.81
2024-04-23T09:26:39.459Z,59.25
2024-04-23T09:27:42.278Z,57.89
2024-04-23T09:28:47.419Z,57.80
2024-04-23T09:29:55.126Z,58.83
2024-04-23T09:30:57.835Z,58.80
2024-04-23T09:32:01.334Z,58.60
2024-04-23T09:33:04.987Z,58.47
2024-04-23T09:34:12.032Z,58.92
2024-04-23T09:35:18.399Z,59.15
2024-04-23T09:36:26.125Z,58.76
2024-04-23T09:37:28.784Z,58.55
2024-04-23T09:38:38.596Z,58.94
2024-04-23T09:39:44.384Z,58.66
2024-04-23T09:40:48.884Z,58.52
2024-04-23T09:42:01.054Z,58.38
2024-04-23T09:43:04.355Z,58.25
2024-04-23T09:44:11.890Z,58.51
2024-04-23T09:45:15.145Z,58.28
2024-04-23T09:46:17.933Z,58.40
2024-04-23T09:47:23.324Z,58.50
2024-04-23T09:48:36.657Z,58.97
2024-04-23T09:49:39.719Z,59.38
2024-04-23T09:50:42.467Z,59.34
2024-04-23T09:51:45.122Z,59.49
2024-04-23T09:52:49.468Z,59.51
2024-04-23T09:53:53.807Z,59.50
2024-04-23T09:54:57.001Z,59.90
2024-04-23T09:56:05.237Z,59.02
2024-04-23T09:57:07.985Z,58.30
2024-04-23T09:58:10.882Z,58.99
2024-04-23T09:59:16.228Z,59.19
2024-04-23T10:00:21.167Z,58.22
2024-04-23T10:01:28.352Z,58.48
2024-04-23T10:02:37.636Z,58.38
2024-04-23T10:03:44.047Z,57.86
2024-04-23T10:04:51.126Z,56.93
2024-04-23T10:06:02.187Z,57.47
2024-04-23T10:07:10.080Z,56.98
2024-04-23T10:08:19.210Z,57.26
2024-04-23T10:09:28.890Z,57.08
2024-04-23T10:10:43.540Z,57.56
2024-04-23T10:11:52.343Z,57.51
2024-04-23T10:12:57.062Z,56.93
2024-04-23T10:14:08.102Z,57.29
2024-04-23T10:15:27.237Z,56.89
2024-04-23T10:16:40.484Z,57.07
2024-04-23T10:17:51.428Z,57.38
2024-04-23T10:19:02.822Z,57.45
2024-04-23T10:20:08.928Z,57.55
2024-04-23T10:21:14.971Z,56.91
2024-04-23T10:22:18.769Z,57.16
2024-04-23T10:23:22.184Z,56.57
2024-04-23T10:24:25.552Z,56.56
2024-04-23T10:25:29.396Z,56.49
2024-04-23T10:26:34.161Z,57.00
2024-04-23T10:27:38.884Z,57.50
2024-04-23T10:28:43.415Z,57.48
2024-04-23T10:29:46.754Z,56.13
2024-04-23T10:30:50.432Z,55.84
2024-04-23T10:31:53.237Z,55.35
2024-04-23T10:32:57.995Z,54.85
2024-04-23T10:34:02.662Z,54.69
2024-04-23T10:35:06.037Z,54.62
2024-04-23T10:36:10.213Z,54.05
2024-04-23T10:37:14.713Z,53.53
2024-04-23T10:38:18.984Z,54.01
2024-04-23T10:39:23.955Z,53.51
2024-04-23T10:40:31.414Z,53.93
2024-04-23T10:41:39.806Z,53.80
2024-04-23T10:42:44.342Z,53.89
2024-04-23T10:43:49.327Z,53.53
2024-04-23T10:44:54.147Z,53.72
2024-04-23T10:45:56.924Z,54.04
2024-04-23T10:46:59.678Z,53.46
2024-04-23T10:48:09.001Z,53.76
2024-04-23T10:49:17.615Z,53.88
2024-04-23T10:50:31.780Z,53.86
2024-04-23T10:51:35.166Z,53.88
2024-04-23T10:52:37.970Z,54.03
2024-04-23T10:53:42.056Z,53.72
2024-04-23T10:54:45.317Z,52.73
2024-04-23T10:55:52.112Z,52.31
2024-04-23T10:56:59.798Z,52.85
2024-04-23T10:58:02.521Z,52.50
2024-04-23T10:59:12.672Z,52.92
2024-04-23T11:00:15.852Z,52.98
2024-04-23T11:01:24.752Z,53.19
2024-04-23T11:02:27.545Z,52.90
2024-04-23T11:03:35.253Z,53.19
2024-04-23T11:04:42.788Z,52.79
2024-04-23T11:05:49.657Z,53.23
2024-04-23T11:07:05.161Z,52.94
2024-04-23T11:08:08.872Z,53.07
2024-04-23T11:09:22.108Z,53.22
2024-04-23T11:10:25.390Z,53.22
2024-04-23T11:11:37.587Z,53.24
2024-04-23T11:12:48.915Z,53.21
2024-04-23T11:13:59.066Z,52.57
2024-04-23T11:15:01.901Z,51.87
2024-04-23T11:16:19.193Z,51.84
2024-04-23T11:17:22.944Z,52.19
2024-04-23T11:18:26.688Z,51.69
2024-04-23T11:19:40.239Z,51.90
2024-04-23T11:20:45.635Z,51.64
2024-04-23T11:21:49.283Z,51.92
2024-04-23T11:23:00.476Z,51.73
2024-04-23T11:24:09.305Z,52.03
2024-04-23T11:25:23.429Z,52.10
2024-04-23T11:26:26.800Z,52.15
2024-04-23T11:27:30.638Z,52.17
2024-04-23T11:28:37.094Z,52.39
2024-04-23T11:29:41.697Z,52.16
2024-04-23T11:30:52.367Z,52.15
2024-04-23T11:31:55.932Z,52.12
2024-04-23T11:32:58.905Z,52.35
2024-04-23T11:34:02.879Z,52.14
2024-04-23T11:35:09.053Z,52.45
2024-04-23T11:36:13.570Z,52.30
2024-04-23T11:37:28.766Z,52.37
2024-04-23T11:38:41.837Z,52.36
2024-04-23T11:39:44.684Z,52.42
2024-04-23T11:40:50.752Z,52.20
2024-04-23T11:41:57.429Z,52.42
2024-04-23T11:43:00.041Z,52.07
2024-04-23T11:44:04.926Z,51.78
2024-04-23T11:45:08.127Z,51.98
2024-04-23T11:46:15.244Z,51.70
2024-04-23T11:47:17.986Z,51.31
2024-04-23T11:48:20.937Z,51.02
2024-04-23T11:49:27.401Z,50.89
2024-04-23T11:50:30.668Z,51.05
2024-04-23T11:51:33.316Z,50.79
2024-04-23T11:52:36.774Z,50.53
2024-04-23T11:53:39.722Z,50.65
2024-04-23T11:54:42.855Z,50.42
2024-04-23T11:55:46.720Z,50.11
2024-04-23T11:56:51.228Z,50.24
2024-04-23T11:57:54.711Z,50.39
2024-04-23T11:58:59.770Z,50.42
2024-04-23T12:00:03.717Z,50.25
2024-04-23T12:01:09.188Z,50.36
2024-04-23T12:02:13.030Z,50.48
2024-04-23T12:03:16.612Z,50.41
2024-04-23T12:04:21.644Z,50.34
2024-04-23T12:05:27.607Z,50.30
2024-04-23T12:06:32.038Z,50.38
2024-04-23T12:07:35.948Z,50.09
2024-04-23T12:08:39.751Z,49.97
2024-04-23T12:09:42.602Z,49.82
2024-04-23T12:10:46.795Z,49.82
2024-04-23T12:11:49.858Z,50.22
2024-04-23T12:12:52.860Z,50.15
2024-04-23T12:13:55.584Z,50.14
2024-04-23T12:14:58.604Z,50.06
2024-04-23T12:16:03.056Z,50.17
2024-04-23T12:17:07.819Z,50.25
2024-04-23T12:18:11.108Z,50.24
2024-04-23T12:19:13.956Z,50.33
2024-04-23T12:20:16.965Z,49.99
2024-04-23T12:21:19.759Z,49.87
2024-04-23T12:22:22.961Z,49.76
2024-04-23T12:23:25.682Z,49.37
2024-04-23T12:24:30.898Z,49.90
2024-04-23T12:25:34.555Z,50.04
2024-04-23T12:26:37.264Z,49.63
2024-04-23T12:27:45.450Z,49.05
2024-04-23T12:28:48.523Z,49.52
2024-04-23T12:29:52.868Z,49.53
2024-04-23T12:30:56.521Z,49.44
2024-04-23T12:32:00.452Z,49.24
2024-04-23T12:33:13.498Z,49.49
2024-04-23T12:34:19.459Z,49.67
2024-04-23T12:35:22.381Z,49.63
2024-04-23T12:36:25.324Z,49.69
2024-04-23T12:37:28.331Z,49.52
2024-04-23T12:38:49.345Z,50.00
2024-04-23T12:39:54.047Z,49.27
2024-04-23T12:40:56.895Z,49.61
2024-04-23T12:42:14.072Z,49.48
2024-04-23T12:43:17.136Z,49.41
2024-04-23T12:44:22.981Z,49.19
2024-04-23T12:45:25.931Z,48.93
2024-04-23T12:46:28.717Z,48.50
2024-04-23T12:47:31.835Z,48.54
2024-04-23T12:48:36.057Z,48.28
2024-04-23T12:49:41.951Z,48.45
2024-04-23T12:50:44.906Z,48.99
2024-04-23T12:51:49.054Z,49.11
2024-04-23T12:52:52.943Z,49.35
2024-04-23T12:53:56.109Z,49.86
2024-04-23T12:54:58.750Z,49.11
2024-04-23T12:56:02.029Z,49.35
2024-04-23T12:57:07.398Z,49.40
2024-04-23T12:58:10.137Z,49.08
2024-04-23T12:59:14.818Z,48.87
2024-04-23T13:00:17.521Z,48.75
2024-04-23T13:01:21.464Z,49.12
2024-04-23T13:02:25.608Z,49.16
2024-04-23T13:03:28.653Z,49.14
2024-04-23T13:04:31.894Z,49.03
2024-04-23T13:05:34.757Z,49.05
2024-04-23T13:06:37.700Z,48.85
2024-04-23T13:07:40.526Z,48.35
2024-04-23T13:08:45.546Z,48.28
2024-04-23T13:09:48.348Z,48.02
2024-04-23T13:10:51.206Z,48.19
2024-04-23T13:11:55.823Z,47.92
2024-04-23T13:12:59.253Z,48.06
2024-04-23T13:14:02.132Z,48.07
2024-04-23T13:15:05.303Z,48.28
2024-04-23T13:16:10.097Z,48.56
2024-04-23T13:17:12.856Z,48.82
2024-04-23T13:18:15.672Z,49.02
2024-04-23T13:19:21.052Z,49.23
2024-04-23T13:20:23.748Z,49.41
2024-04-23T13:21:26.635Z,49.11
2024-04-23T13:22:29.269Z,49.08
2024-04-23T13:23:32.297Z,49.10
2024-04-23T13:24:35.160Z,49.42
2024-04-23T13:25:39.179Z,49.54
2024-04-23T13:26:41.958Z,49.70
2024-04-23T13:27:44.806Z,49.37
2024-04-23T13:28:47.680Z,49.75
2024-04-23T13:29:51.361Z,49.77
2024-04-23T13:30:57.792Z,49.28
2024-04-23T13:32:01.717Z,49.15
2024-04-23T13:33:04.918Z,49.54
2024-04-23T13:34:10.981Z,49.49
2024-04-23T13:35:13.866Z,49.64
2024-04-23T13:36:16.792Z,49.46
2024-04-23T13:37:19.511Z,49.85
2024-04-23T13:38:22.288Z,49.63
2024-04-23T13:39:26.013Z,49.91
2024-04-23T13:40:30.593Z,49.75
2024-04-23T13:41:33.440Z,49.79
2024-04-23T13:42:37.144Z,49.92
2024-04-23T13:43:39.983Z,49.72
2024-04-23T13:44:43.268Z,50.20
2024-04-23T13:45:46.090Z,50.15
2024-04-23T13:46:49.372Z,49.94
2024-04-23T13:47:52.327Z,49.97
2024-04-23T13:48:55.340Z,49.48
2024-04-23T13:49:58.307Z,49.96
2024-04-23T13:51:01.238Z,50.09
2024-04-23T13:52:04.818Z,50.18
2024-04-23T13:53:07.761Z,50.07
2024-04-23T13:54:10.878Z,49.80
2024-04-23T13:55:15.007Z,50.62
2024-04-23T13:56:17.745Z,50.54
2024-04-23T13:57:20.509Z,50.63
2024-04-23T13:58:23.910Z,50.52
2024-04-23T13:59:27.018Z,51.09
2024-04-23T14:00:29.901Z,51.13
2024-04-23T14:01:32.728Z,51.04
2024-04-23T14:02:35.734Z,50.87
2024-04-23T14:03:39.901Z,51.20
2024-04-23T14:04:45.856Z,51.52
2024-04-23T14:05:48.721Z,51.37
2024-04-23T14:06:54.390Z,51.75
2024-04-23T14:07:57.438Z,51.73
2024-04-23T14:09:00.417Z,51.47
2024-04-23T14:10:03.717Z,51.64
2024-04-23T14:11:09.911Z,51.92
2024-04-23T14:12:13.253Z,52.07
2024-04-23T14:13:15.929Z,52.32
2024-04-23T14:14:18.922Z,52.24
2024-04-23T14:15:23.565Z,52.26
2024-04-23T14:16:27.088Z,52.07
2024-04-23T14:17:30.606Z,52.50
2024-04-23T14:18:33.409Z,52.56
2024-04-23T14:19:36.287Z,52.66
2024-04-23T14:20:39.046Z,52.76
2024-04-23T14:21:42.228Z,52.49
2024-04-23T14:22:44.970Z,52.61
2024-04-23T14:23:47.764Z,52.49
2024-04-23T14:24:50.575Z,52.60
2024-04-23T14:25:53.395Z,52.67
2024-04-23T14:26:56.480Z,52.86
2024-04-23T14:27:59.148Z,53.00
2024-04-23T14:29:01.946Z,53.19
2024-04-23T14:30:05.189Z,53.33
2024-04-23T14:31:08.403Z,53.64
2024-04-23T14:32:14.105Z,53.67
2024-04-23T14:33:17.159Z,53.97
2024-04-23T14:34:23.771Z,54.23
2024-04-23T14:35:27.236Z,54.21
2024-04-23T14:36:30.253Z,54.32
2024-04-23T14:37:34.364Z,54.59
2024-04-23T14:38:37.228Z,54.71
2024-04-23T14:39:39.814Z,54.77
2024-04-23T14:40:42.643Z,54.91
2024-04-23T14:41:46.504Z,55.00
2024-04-23T14:42:49.663Z,54.91
2024-04-23T14:43:52.503Z,55.11
2024-04-23T14:44:58.161Z,55.21
2024-04-23T14:46:12.885Z,54.88
2024-04-23T14:47:15.815Z,54.92
2024-04-23T14:48:19.212Z,55.13
2024-04-23T14:49:28.038Z,55.02
2024-04-23T14:50:31.499Z,55.25
2024-04-23T14:51:34.304Z,55.25
2024-04-23T14:52:36.985Z,55.22
2024-04-23T14:53:40.089Z,55.28
2024-04-23T14:54:42.873Z,55.25
2024-04-23T14:55:45.618Z,55.04
2024-04-23T14:56:51.529Z,55.12
2024-04-23T14:57:56.170Z,55.33
2024-04-23T14:59:00.903Z,55.51
2024-04-23T15:00:03.738Z,55.44
2024-04-23T15:01:11.047Z,55.27
2024-04-23T15:02:16.621Z,55.34
2024-04-23T15:03:19.395Z,55.26
2024-04-23T15:04:22.852Z,55.16
2024-04-23T15:05:25.876Z,55.12
2024-04-23T15:06:30.002Z,54.85
2024-04-23T15:07:33.227Z,54.66
2024-04-23T15:08:38.307Z,54.98
2024-04-23T15:09:41.088Z,54.96
2024-04-23T15:10:48.678Z,55.16
2024-04-23T15:11:54.726Z,55.07
2024-04-23T15:13:02.851Z,55.54
2024-04-23T15:14:05.653Z,55.55
2024-04-23T15:15:11.405Z,55.65
2024-04-23T15:16:14.022Z,55.63
2024-04-23T15:17:17.050Z,55.89
2024-04-23T15:18:19.959Z,55.97
2024-04-23T15:19:22.663Z,55.92
2024-04-23T15:20:26.935Z,55.97
2024-04-23T15:21:29.638Z,55.92
2024-04-23T15:22:32.264Z,56.07